createdAt,value
2022-07-31T00:00:28.224Z,14.57
2022-07-31T00:02:56.113Z,14.60
2022-07-31T00:05:25.600Z,14.58
2022-07-31T00:07:54.170Z,14.58
2022-07-31T00:10:21.666Z,14.55
2022-07-31T00:12:49.366Z,14.54
2022-07-31T00:15:17.641Z,14.54
2022-07-31T00:17:46.031Z,14.51
2022-07-31T00:20:15.269Z,14.51
2022-07-31T00:22:44.499Z,14.51
2022-07-31T00:25:13.518Z,14.50
2022-07-31T00:27:42.214Z,14.51
2022-07-31T00:30:13.132Z,14.51
2022-07-31T00:32:42.116Z,14.51
2022-07-31T00:35:14.310Z,14.49
2022-07-31T00:37:43.384Z,14.45
2022-07-31T00:40:13.359Z,14.48
2022-07-31T00:42:41.510Z,14.49
2022-07-31T00:45:10.395Z,14.46
2022-07-31T00:47:42.259Z,14.46
2022-07-31T00:50:11.633Z,14.46
2022-07-31T00:52:40.777Z,14.44
2022-07-31T00:55:08.780Z,14.44
2022-07-31T00:57:36.623Z,14.45
2022-07-31T01:00:05.616Z,14.46
2022-07-31T01:02:33.306Z,14.46
2022-07-31T01:05:00.827Z,14.48
2022-07-31T01:07:28.337Z,14.47
2022-07-31T01:09:56.990Z,14.47
2022-07-31T01:12:33.962Z,14.49
2022-07-31T01:15:06.040Z,14.51
2022-07-31T01:17:36.320Z,14.52
2022-07-31T01:20:04.669Z,14.48
2022-07-31T01:23:19.638Z,14.44
2022-07-31T01:26:31.751Z,14.42
2022-07-31T01:29:10.206Z,14.45
2022-07-31T01:31:48.211Z,14.44
2022-07-31T01:34:24.606Z,14.44
2022-07-31T01:37:13.119Z,14.42
2022-07-31T01:39:46.981Z,14.42
2022-07-31T01:42:18.624Z,14.43
2022-07-31T01:44:51.431Z,14.44
2022-07-31T01:47:21.708Z,14.44
2022-07-31T01:49:53.626Z,14.39
2022-07-31T01:52:26.260Z,14.41
2022-07-31T01:54:56.011Z,14.42
2022-07-31T01:57:26.047Z,14.43
2022-07-31T01:59:58.779Z,14.41
2022-07-31T02:02:45.100Z,14.43
2022-07-31T02:05:13.491Z,14.46
2022-07-31T02:07:43.220Z,14.48
2022-07-31T02:10:13.863Z,14.45
2022-07-31T02:12:44.182Z,14.46
2022-07-31T02:15:14.441Z,14.44
2022-07-31T02:17:46.787Z,14.43
2022-07-31T02:20:41.601Z,14.45
2022-07-31T02:23:12.102Z,14.45
2022-07-31T02:25:40.458Z,14.43
2022-07-31T02:28:10.709Z,14.40
2022-07-31T02:30:41.625Z,14.40
2022-07-31T02:33:19.139Z,14.41
2022-07-31T02:35:53.936Z,14.43
2022-07-31T02:38:24.270Z,14.40
2022-07-31T02:40:58.879Z,14.45
2022-07-31T02:43:28.771Z,14.46
2022-07-31T02:45:58.645Z,14.43
2022-07-31T02:48:27.188Z,14.43
2022-07-31T02:50:57.776Z,14.45
2022-07-31T02:53:27.233Z,14.45
2022-07-31T02:56:01.439Z,14.45
2022-07-31T02:58:32.646Z,14.40
2022-07-31T03:01:06.111Z,14.38
2022-07-31T03:03:35.461Z,14.37
2022-07-31T03:06:03.289Z,14.38
2022-07-31T03:08:34.210Z,14.35
2022-07-31T03:11:05.962Z,14.36
2022-07-31T03:13:35.440Z,14.35
2022-07-31T03:16:07.309Z,14.38
2022-07-31T03:18:36.740Z,14.41
2022-07-31T03:21:05.001Z,14.42
2022-07-31T03:23:36.614Z,14.44
2022-07-31T03:26:16.418Z,14.41
2022-07-31T03:28:44.066Z,14.44
2022-07-31T03:31:11.555Z,14.41
2022-07-31T03:33:39.177Z,14.40
2022-07-31T03:36:09.662Z,14.37
2022-07-31T03:38:42.226Z,14.36
2022-07-31T03:41:34.181Z,14.36
2022-07-31T03:44:02.779Z,14.34
2022-07-31T03:46:31.196Z,14.37
2022-07-31T03:48:59.197Z,14.34
2022-07-31T03:51:28.153Z,14.34
2022-07-31T03:53:56.462Z,14.32
2022-07-31T03:56:50.109Z,14.39
2022-07-31T03:59:20.298Z,14.52
2022-07-31T04:01:57.219Z,14.74
2022-07-31T04:04:43.500Z,15.28
2022-07-31T04:07:11.152Z,15.94
2022-07-31T04:09:38.828Z,16.70
2022-07-31T04:12:07.805Z,17.43
2022-07-31T04:14:35.700Z,18.09
2022-07-31T04:17:03.543Z,18.74
2022-07-31T04:19:31.682Z,19.35
2022-07-31T04:22:00.761Z,19.89
2022-07-31T04:24:28.612Z,20.39
2022-07-31T04:27:02.240Z,20.81
2022-07-31T04:29:37.590Z,21.26
2022-07-31T04:32:06.030Z,21.23
2022-07-31T04:34:43.841Z,21.49
2022-07-31T04:37:11.516Z,21.65
2022-07-31T04:39:39.050Z,21.85
2022-07-31T04:42:11.269Z,22.26
2022-07-31T04:44:39.282Z,22.44
2022-07-31T04:47:08.264Z,22.40
2022-07-31T04:49:41.980Z,22.69
2022-07-31T04:52:11.898Z,22.90
2022-07-31T04:54:41.181Z,23.22
2022-07-31T04:57:11.185Z,23.73
2022-07-31T04:59:57.877Z,24.03
2022-07-31T05:02:26.527Z,24.21
2022-07-31T05:04:57.232Z,24.47
2022-07-31T05:07:30.879Z,24.70
2022-07-31T05:10:00.921Z,24.60
2022-07-31T05:12:28.640Z,24.81
2022-07-31T05:14:56.359Z,25.17
2022-07-31T05:17:23.992Z,24.98
2022-07-31T05:20:00.997Z,24.99
2022-07-31T05:22:51.570Z,25.23
2022-07-31T05:25:41.707Z,25.54
2022-07-31T05:28:09.812Z,25.35
2022-07-31T05:30:38.280Z,25.80
2022-07-31T05:33:07.032Z,25.93
2022-07-31T05:35:35.931Z,25.78
2022-07-31T05:38:03.510Z,25.76
2022-07-31T05:40:57.441Z,25.83
2022-07-31T05:43:54.420Z,25.31
2022-07-31T05:46:25.799Z,25.30
2022-07-31T05:48:53.718Z,25.59
2022-07-31T05:51:21.298Z,26.12
2022-07-31T05:53:50.090Z,26.02
2022-07-31T05:56:36.050Z,25.99
2022-07-31T05:59:04.105Z,26.13
2022-07-31T06:01:32.012Z,26.34
2022-07-31T06:03:59.959Z,25.64
2022-07-31T06:06:32.878Z,25.84
2022-07-31T06:09:04.560Z,25.91
2022-07-31T06:11:36.561Z,26.24
2022-07-31T06:14:04.160Z,26.39
2022-07-31T06:16:50.347Z,26.25
2022-07-31T06:19:19.847Z,26.94
2022-07-31T06:21:54.027Z,27.09
2022-07-31T06:24:22.865Z,27.36
2022-07-31T06:26:50.490Z,27.50
2022-07-31T06:29:18.176Z,27.63
2022-07-31T06:31:45.970Z,27.97
2022-07-31T06:34:18.276Z,27.92
2022-07-31T06:36:49.148Z,27.37
2022-07-31T06:39:19.638Z,28.06
2022-07-31T06:42:10.378Z,27.98
2022-07-31T06:44:45.788Z,27.58
2022-07-31T06:47:32.331Z,28.31
2022-07-31T06:50:17.567Z,28.33
2022-07-31T06:52:55.297Z,28.53
2022-07-31T06:55:24.628Z,28.64
2022-07-31T06:57:52.129Z,29.17
2022-07-31T07:00:21.047Z,28.70
2022-07-31T07:02:51.597Z,28.74
2022-07-31T07:05:19.319Z,29.30
2022-07-31T07:07:51.229Z,28.95
2022-07-31T07:10:18.859Z,28.99
2022-07-31T07:13:01.431Z,29.20
2022-07-31T07:15:33.460Z,29.56
2022-07-31T07:18:01.068Z,29.18
2022-07-31T07:20:39.460Z,28.65
2022-07-31T07:23:07.092Z,28.44
2022-07-31T07:25:38.885Z,28.46
2022-07-31T07:28:14.843Z,28.72
2022-07-31T07:30:43.529Z,28.84
2022-07-31T07:33:11.995Z,29.10
2022-07-31T07:35:39.859Z,29.14
2022-07-31T07:38:13.699Z,29.32
2022-07-31T07:40:44.351Z,29.69
2022-07-31T07:43:12.135Z,30.16
2022-07-31T07:45:40.175Z,30.37
2022-07-31T07:48:08.130Z,29.95
2022-07-31T07:50:58.598Z,29.92
2022-07-31T07:53:31.850Z,30.30
2022-07-31T07:56:18.128Z,29.43
2022-07-31T07:59:04.329Z,29.14
2022-07-31T08:01:50.405Z,29.05
2022-07-31T08:04:23.719Z,29.10
2022-07-31T08:06:51.319Z,29.30
2022-07-31T08:09:21.289Z,29.35
2022-07-31T08:12:08.778Z,29.42
2022-07-31T08:14:56.505Z,29.83
2022-07-31T08:17:47.269Z,29.92
2022-07-31T08:20:15.421Z,29.72
2022-07-31T08:22:43.684Z,29.22
2022-07-31T08:25:15.114Z,29.35
2022-07-31T08:27:43.548Z,29.53
2022-07-31T08:30:15.977Z,30.12
2022-07-31T08:32:43.648Z,30.09
2022-07-31T08:35:20.978Z,30.38
2022-07-31T08:37:52.151Z,29.75
2022-07-31T08:40:32.678Z,28.77
2022-07-31T08:43:14.626Z,28.28
2022-07-31T08:45:53.008Z,28.05
2022-07-31T08:48:32.869Z,28.57
2022-07-31T08:51:03.839Z,29.21
2022-07-31T08:54:11.348Z,29.52
2022-07-31T08:56:39.457Z,29.86
2022-07-31T08:59:09.227Z,29.71
2022-07-31T09:01:39.108Z,30.05
2022-07-31T09:04:06.998Z,30.17
2022-07-31T09:06:34.547Z,29.69
2022-07-31T09:09:02.458Z,28.67
2022-07-31T09:11:30.828Z,28.45
2022-07-31T09:14:30.188Z,27.73
2022-07-31T09:16:58.127Z,27.43
2022-07-31T09:19:54.302Z,28.39
2022-07-31T09:22:28.327Z,29.05
2022-07-31T09:25:16.428Z,28.79
2022-07-31T09:27:45.379Z,28.32
2022-07-31T09:30:13.228Z,28.27
2022-07-31T09:33:19.098Z,27.78
2022-07-31T09:36:01.857Z,28.03
2022-07-31T09:38:39.456Z,28.66
2022-07-31T09:42:00.232Z,29.87
2022-07-31T09:44:25.292Z,28.72
2022-07-31T09:46:54.507Z,28.34
2022-07-31T09:49:31.962Z,29.07
2022-07-31T09:52:00.857Z,29.15
2022-07-31T09:54:31.646Z,28.85
2022-07-31T09:56:59.393Z,27.41
2022-07-31T09:59:32.727Z,27.14
2022-07-31T10:02:01.427Z,27.02
2022-07-31T10:04:29.334Z,27.28
2022-07-31T10:06:57.485Z,26.83
2022-07-31T10:09:25.569Z,27.10
2022-07-31T10:12:18.355Z,27.56
2022-07-31T10:14:48.945Z,27.95
2022-07-31T10:17:26.279Z,28.66
2022-07-31T10:20:06.578Z,29.48
2022-07-31T10:22:49.589Z,29.45
2022-07-31T10:25:29.929Z,29.00
2022-07-31T10:27:58.883Z,28.59
2022-07-31T10:30:28.878Z,28.12
2022-07-31T10:33:00.350Z,27.35
2022-07-31T10:35:28.342Z,27.16
2022-07-31T10:38:41.893Z,27.84
2022-07-31T10:41:54.645Z,29.20
2022-07-31T10:44:52.782Z,28.93
2022-07-31T10:47:27.363Z,28.56
2022-07-31T10:50:22.560Z,28.13
2022-07-31T10:53:16.730Z,27.49
2022-07-31T10:56:19.754Z,28.10
2022-07-31T10:59:11.078Z,28.29
2022-07-31T11:01:55.287Z,28.09
2022-07-31T11:04:38.743Z,28.55
2022-07-31T11:07:38.492Z,29.32
2022-07-31T11:10:12.318Z,28.75
2022-07-31T11:13:11.134Z,28.03
2022-07-31T11:16:06.643Z,27.60
2022-07-31T11:19:13.933Z,28.62
2022-07-31T11:21:42.438Z,29.36
2022-07-31T11:24:17.369Z,29.06
2022-07-31T11:26:52.092Z,29.29
2022-07-31T11:30:00.679Z,28.58
2022-07-31T11:32:25.751Z,27.67
2022-07-31T11:34:56.962Z,27.57
2022-07-31T11:37:56.875Z,27.32
2022-07-31T11:40:22.503Z,27.34
2022-07-31T11:45:49.919Z,26.40
2022-07-31T11:48:19.704Z,26.04
2022-07-31T11:50:48.918Z,25.95
2022-07-31T11:53:17.952Z,25.36
2022-07-31T11:55:56.140Z,25.38
2022-07-31T11:58:25.377Z,25.26
2022-07-31T12:00:59.981Z,25.26
2022-07-31T12:03:35.462Z,25.17
2022-07-31T12:06:04.534Z,25.39
2022-07-31T12:08:33.032Z,25.49
2022-07-31T12:11:02.222Z,25.67
2022-07-31T12:13:30.650Z,26.25
2022-07-31T12:16:05.145Z,26.38
2022-07-31T12:18:56.610Z,26.31
2022-07-31T12:21:35.939Z,27.03
2022-07-31T12:24:11.471Z,27.63
2022-07-31T12:26:39.171Z,28.26
2022-07-31T12:29:08.663Z,28.74
2022-07-31T12:31:46.622Z,28.76
2022-07-31T12:34:35.818Z,28.76
2022-07-31T12:37:07.040Z,28.57
2022-07-31T12:39:53.885Z,29.11
2022-07-31T12:42:30.224Z,28.66
2022-07-31T12:45:18.333Z,28.05
2022-07-31T12:47:51.946Z,28.11
2022-07-31T12:50:24.894Z,28.76
2022-07-31T12:52:52.963Z,29.44
2022-07-31T12:55:21.031Z,29.58
2022-07-31T12:57:51.703Z,29.00
2022-07-31T13:00:23.286Z,28.59
2022-07-31T13:02:52.706Z,28.83
2022-07-31T13:05:21.191Z,28.49
2022-07-31T13:07:49.662Z,28.39
2022-07-31T13:10:21.314Z,28.05
2022-07-31T13:12:52.969Z,27.98
2022-07-31T13:15:30.053Z,27.66
2022-07-31T13:18:02.115Z,27.90
2022-07-31T13:20:31.277Z,28.08
2022-07-31T13:23:03.181Z,28.29
2022-07-31T13:25:30.947Z,28.91
2022-07-31T13:27:59.192Z,29.10
2022-07-31T13:30:28.490Z,29.22
2022-07-31T13:32:55.940Z,29.66
2022-07-31T13:35:28.632Z,29.50
2022-07-31T13:37:57.033Z,29.84
2022-07-31T13:40:44.530Z,29.70
2022-07-31T13:43:13.200Z,29.52
2022-07-31T13:45:40.712Z,29.70
2022-07-31T13:48:10.243Z,29.98
2022-07-31T13:50:40.072Z,30.26
2022-07-31T13:53:08.926Z,30.22
2022-07-31T13:55:36.847Z,30.30
2022-07-31T13:58:04.695Z,29.86
2022-07-31T14:00:32.538Z,28.62
2022-07-31T14:03:00.230Z,28.10
2022-07-31T14:05:28.308Z,27.73
2022-07-31T14:08:29.646Z,27.18
2022-07-31T14:10:48.449Z,27.25
2022-07-31T14:13:19.617Z,27.76
2022-07-31T14:15:48.064Z,27.77
2022-07-31T14:18:15.875Z,28.00
2022-07-31T14:20:43.382Z,28.56
2022-07-31T14:23:11.431Z,28.94
2022-07-31T14:25:39.797Z,28.92
2022-07-31T14:28:08.722Z,28.69
2022-07-31T14:30:37.483Z,28.84
2022-07-31T14:33:05.286Z,28.88
2022-07-31T14:35:33.791Z,28.90
2022-07-31T14:38:04.220Z,28.59
2022-07-31T14:40:32.340Z,28.46
2022-07-31T14:43:00.182Z,28.25
2022-07-31T14:45:28.077Z,28.18
2022-07-31T14:47:57.340Z,27.80
2022-07-31T14:50:25.147Z,27.59
2022-07-31T14:52:52.861Z,27.71
2022-07-31T14:55:21.119Z,27.88
2022-07-31T14:57:48.649Z,27.65
2022-07-31T15:00:16.882Z,27.75
2022-07-31T15:02:45.058Z,27.58
2022-07-31T15:06:42.350Z,27.64
2022-07-31T15:08:02.530Z,27.58
2022-07-31T15:10:31.547Z,27.77
2022-07-31T15:12:59.129Z,28.04
2022-07-31T15:15:28.587Z,28.04
2022-07-31T15:17:56.862Z,27.99
2022-07-31T15:20:32.900Z,28.07
2022-07-31T15:23:02.033Z,28.11
2022-07-31T15:25:30.477Z,27.89
2022-07-31T15:27:58.401Z,27.68
2022-07-31T15:30:26.039Z,27.71
2022-07-31T15:32:53.722Z,27.90
2022-07-31T15:35:21.295Z,27.75
2022-07-31T15:37:49.782Z,27.89
2022-07-31T15:40:17.942Z,27.97
2022-07-31T15:42:46.846Z,27.70
2022-07-31T15:45:16.823Z,27.42
2022-07-31T15:47:45.663Z,27.34
2022-07-31T15:50:15.663Z,27.26
2022-07-31T15:52:43.507Z,27.35
2022-07-31T15:55:11.777Z,27.49
2022-07-31T15:57:39.707Z,27.55
2022-07-31T16:00:11.163Z,27.41
2022-07-31T16:02:39.661Z,27.26
2022-07-31T16:05:11.274Z,27.04
2022-07-31T16:08:30.275Z,26.84
2022-07-31T16:10:28.360Z,26.69
2022-07-31T16:12:55.979Z,26.55
2022-07-31T16:15:24.142Z,26.58
2022-07-31T16:17:54.262Z,26.81
2022-07-31T16:20:27.104Z,26.95
2022-07-31T16:22:58.501Z,27.01
2022-07-31T16:25:27.341Z,26.96
2022-07-31T16:27:55.497Z,26.87
2022-07-31T16:30:23.622Z,26.92
2022-07-31T16:32:51.620Z,26.57
2022-07-31T16:35:19.523Z,26.54
2022-07-31T16:37:52.059Z,26.55
2022-07-31T16:40:26.876Z,26.56
2022-07-31T16:43:01.598Z,26.72
2022-07-31T16:45:30.179Z,26.74
2022-07-31T16:47:58.022Z,26.72
2022-07-31T16:50:26.002Z,26.63
2022-07-31T16:52:55.083Z,26.57
2022-07-31T16:55:51.551Z,26.46
2022-07-31T16:58:12.701Z,26.45
2022-07-31T17:00:40.561Z,26.43
2022-07-31T17:03:59.503Z,26.43
2022-07-31T17:05:56.393Z,26.33
2022-07-31T17:08:24.239Z,26.26
2022-07-31T17:10:54.622Z,26.12
2022-07-31T17:13:23.346Z,25.91
2022-07-31T17:15:51.020Z,25.73
2022-07-31T17:18:19.021Z,25.63
2022-07-31T17:20:47.298Z,25.49
2022-07-31T17:23:15.689Z,25.46
2022-07-31T17:25:43.999Z,25.43
2022-07-31T17:28:15.393Z,25.34
2022-07-31T17:30:45.154Z,25.19
2022-07-31T17:33:13.198Z,25.13
2022-07-31T17:35:41.118Z,25.02
2022-07-31T17:38:08.821Z,24.87
2022-07-31T17:40:44.400Z,24.84
2022-07-31T17:43:14.260Z,24.78
2022-07-31T17:45:59.367Z,24.77
2022-07-31T17:48:32.077Z,24.72
2022-07-31T17:50:59.719Z,24.69
2022-07-31T17:53:31.102Z,24.63
2022-07-31T17:56:16.676Z,24.59
2022-07-31T17:58:44.360Z,24.51
2022-07-31T18:01:12.100Z,24.46
2022-07-31T18:03:39.801Z,24.46
2022-07-31T18:06:07.522Z,24.39
2022-07-31T18:08:35.237Z,24.31
2022-07-31T18:11:03.040Z,24.27
2022-07-31T18:13:30.736Z,24.16
2022-07-31T18:16:08.276Z,24.09
2022-07-31T18:18:35.962Z,24.03
2022-07-31T18:21:03.920Z,23.97
2022-07-31T18:23:32.619Z,23.92
2022-07-31T18:26:01.001Z,23.85
2022-07-31T18:28:31.840Z,23.82
2022-07-31T18:31:03.699Z,23.74
2022-07-31T18:33:31.456Z,23.72
2022-07-31T18:35:59.096Z,23.69
2022-07-31T18:38:26.840Z,23.63
2022-07-31T18:40:56.102Z,23.59
2022-07-31T18:43:23.724Z,23.54
2022-07-31T18:45:51.541Z,23.47
2022-07-31T18:48:20.463Z,23.39
2022-07-31T18:50:59.640Z,23.30
2022-07-31T18:53:32.258Z,23.20
2022-07-31T18:56:00.220Z,23.16
2022-07-31T18:58:27.919Z,23.13
2022-07-31T19:00:55.937Z,23.09
2022-07-31T19:03:26.470Z,23.07
2022-07-31T19:05:54.648Z,23.05
2022-07-31T19:08:22.500Z,23.04
2022-07-31T19:10:53.566Z,23.04
2022-07-31T19:13:22.559Z,23.03
2022-07-31T19:15:53.172Z,22.97
2022-07-31T19:18:26.357Z,22.93
2022-07-31T19:21:22.995Z,22.89
2022-07-31T19:23:48.299Z,22.86
2022-07-31T19:26:16.920Z,22.83
2022-07-31T19:28:44.662Z,22.75
2022-07-31T19:31:13.527Z,22.71
2022-07-31T19:33:41.599Z,22.66
2022-07-31T19:36:10.865Z,22.62
2022-07-31T19:38:41.055Z,22.60
2022-07-31T19:41:08.679Z,22.58
2022-07-31T19:43:36.439Z,22.56
2022-07-31T19:46:12.338Z,22.52
2022-07-31T19:48:45.963Z,22.49
2022-07-31T19:51:15.963Z,22.46
2022-07-31T19:53:44.738Z,22.42
2022-07-31T19:56:18.338Z,22.38
2022-07-31T19:58:49.521Z,22.34
2022-07-31T20:01:20.272Z,22.32
2022-07-31T20:03:49.782Z,22.22
2022-07-31T20:06:17.645Z,22.14
2022-07-31T20:08:45.265Z,22.03
2022-07-31T20:11:13.637Z,21.79
2022-07-31T20:13:41.476Z,21.68
2022-07-31T20:16:09.519Z,21.54
2022-07-31T20:18:37.359Z,21.42
2022-07-31T20:21:07.957Z,21.26
2022-07-31T20:23:41.809Z,21.26
2022-07-31T20:26:11.162Z,21.20
2022-07-31T20:28:42.760Z,21.09
2022-07-31T20:31:15.941Z,21.05
2022-07-31T20:33:57.080Z,20.99
2022-07-31T20:36:27.033Z,20.92
2022-07-31T20:38:55.400Z,20.93
2022-07-31T20:41:22.999Z,20.94
2022-07-31T20:43:50.621Z,20.96
2022-07-31T20:46:18.665Z,21.01
2022-07-31T20:48:46.238Z,21.02
2022-07-31T20:51:20.553Z,21.03
2022-07-31T20:53:52.281Z,21.03
2022-07-31T20:56:20.224Z,21.06
2022-07-31T20:58:51.698Z,21.04
2022-07-31T21:01:21.585Z,21.03
2022-07-31T21:03:49.396Z,21.01
2022-07-31T21:06:17.038Z,20.98
2022-07-31T21:08:44.656Z,20.96
2022-07-31T21:11:12.398Z,20.93
2022-07-31T21:13:40.146Z,20.92
2022-07-31T21:16:08.199Z,20.95
2022-07-31T21:18:38.867Z,20.94
2022-07-31T21:21:08.996Z,20.92
2022-07-31T21:23:36.518Z,20.90
2022-07-31T21:26:04.387Z,20.89
2022-07-31T21:28:32.418Z,20.88
2022-07-31T21:31:00.560Z,20.78
2022-07-31T21:33:28.521Z,20.72
2022-07-31T21:35:56.274Z,20.69
2022-07-31T21:38:24.161Z,20.71
2022-07-31T21:40:53.694Z,20.68
2022-07-31T21:43:22.960Z,20.66
2022-07-31T21:45:57.491Z,20.62
2022-07-31T21:48:31.561Z,20.61
2022-07-31T21:51:00.915Z,20.60
2022-07-31T21:53:28.618Z,20.62
2022-07-31T21:56:00.957Z,20.66
2022-07-31T21:58:28.499Z,20.65
2022-07-31T22:00:56.057Z,20.58
2022-07-31T22:03:25.602Z,20.55
2022-07-31T22:06:11.739Z,20.51
2022-07-31T22:08:39.794Z,20.52
2022-07-31T22:11:07.500Z,20.51
2022-07-31T22:13:35.557Z,20.49
2022-07-31T22:16:03.284Z,20.47
2022-07-31T22:18:33.584Z,20.39
2022-07-31T22:21:04.998Z,20.43
2022-07-31T22:23:32.799Z,20.45
2022-07-31T22:26:00.874Z,20.47
2022-07-31T22:28:28.635Z,20.44
2022-07-31T22:30:57.301Z,20.36
2022-07-31T22:33:25.327Z,20.30
2022-07-31T22:35:59.032Z,20.27
2022-07-31T22:38:29.776Z,20.22
2022-07-31T22:40:58.962Z,20.21
2022-07-31T22:44:12.383Z,20.22
2022-07-31T22:46:15.893Z,20.21
2022-07-31T22:48:45.585Z,20.30
2022-07-31T22:51:15.041Z,20.32
2022-07-31T22:53:49.163Z,20.34
2022-07-31T22:56:17.954Z,20.35
2022-07-31T22:58:45.768Z,20.37
2022-07-31T23:01:13.557Z,20.36
2022-07-31T23:03:41.040Z,20.39
2022-07-31T23:06:30.571Z,20.40
2022-07-31T23:08:56.380Z,20.34
2022-07-31T23:11:24.831Z,20.29
2022-07-31T23:13:52.965Z,20.24
2022-07-31T23:16:21.535Z,20.13
2022-07-31T23:18:50.061Z,20.11
2022-07-31T23:21:18.908Z,20.09
2022-07-31T23:23:48.546Z,20.08
2022-07-31T23:26:21.620Z,20.07
2022-07-31T23:28:49.737Z,20.08
2022-07-31T23:31:18.153Z,20.10
2022-07-31T23:33:47.537Z,20.12
2022-07-31T23:36:16.275Z,20.17
2022-07-31T23:38:44.581Z,20.17
2022-07-31T23:41:12.898Z,20.22
2022-07-31T23:43:40.860Z,20.22
2022-07-31T23:46:26.502Z,20.17
2022-07-31T23:48:54.781Z,20.15
2022-07-31T23:51:23.777Z,20.14
2022-07-31T23:53:51.657Z,20.10
2022-07-31T23:56:19.947Z,20.09
2022-07-31T23:58:47.592Z,20.06
